createdAt,value
2018-09-20T00:03:44.599Z,100553.05
2018-09-20T00:08:48.090Z,100548.28
2018-09-20T00:13:51.552Z,100548.05
2018-09-20T00:18:54.986Z,100544.28
2018-09-20T00:23:58.439Z,100554.03
2018-09-20T00:29:01.890Z,100549.23
2018-09-20T00:34:05.316Z,100556.77
2018-09-20T00:39:11.214Z,100555.47
2018-09-20T00:44:14.692Z,100551.70
2018-09-20T00:49:18.154Z,100554.34
2018-09-20T00:54:21.619Z,100558.53
2018-09-20T00:59:25.079Z,100556.38
2018-09-20T01:04:28.528Z,100561.77
2018-09-20T01:09:31.971Z,100558.51
2018-09-20T01:14:35.435Z,100563.02
2018-09-20T01:19:38.893Z,100555.82
2018-09-20T01:24:42.363Z,100565.77
2018-09-20T01:29:45.844Z,100565.05
2018-09-20T01:34:49.323Z,100565.05
2018-09-20T01:39:52.770Z,100569.35
2018-09-20T01:44:56.249Z,100571.48
2018-09-20T01:49:59.701Z,100580.57
2018-09-20T01:55:03.175Z,100587.10
2018-09-20T02:00:06.729Z,100581.81
2018-09-20T02:05:10.178Z,100583.30
2018-09-20T02:10:13.627Z,100579.75
2018-09-20T02:15:17.064Z,100579.54
2018-09-20T02:20:20.548Z,100580.17
2018-09-20T02:25:24.018Z,100590.11
2018-09-20T02:30:27.500Z,100584.47
2018-09-20T02:35:30.955Z,100584.97
2018-09-20T02:40:34.446Z,100586.95
2018-09-20T02:45:37.889Z,100592.98
2018-09-20T02:50:41.327Z,100594.61
2018-09-20T02:55:44.782Z,100586.77
2018-09-20T03:00:48.226Z,100584.06
2018-09-20T03:05:51.703Z,100586.55
2018-09-20T03:10:55.140Z,100585.69
2018-09-20T03:15:58.607Z,100595.63
2018-09-20T03:21:02.052Z,100596.27
2018-09-20T03:26:05.503Z,100598.22
2018-09-20T03:31:08.956Z,100602.75
2018-09-20T03:36:12.413Z,100597.86
2018-09-20T03:41:15.872Z,100602.04
2018-09-20T03:46:19.309Z,100608.78
2018-09-20T03:51:22.781Z,100616.66
2018-09-20T03:56:26.246Z,100621.41
2018-09-20T04:01:29.691Z,100617.78
2018-09-20T04:06:33.140Z,100612.64
2018-09-20T04:11:36.685Z,100613.63
2018-09-20T04:16:40.132Z,100616.32
2018-09-20T04:21:43.569Z,100615.61
2018-09-20T04:26:47.027Z,100612.55
2018-09-20T04:31:50.502Z,100607.36
2018-09-20T04:36:53.947Z,100611.55
2018-09-20T04:41:57.393Z,100628.13
2018-09-20T04:47:00.855Z,100615.89
2018-09-20T04:52:04.312Z,100613.08
2018-09-20T04:57:08.233Z,100616.11
2018-09-20T05:02:11.673Z,100621.34
2018-09-20T05:07:15.132Z,100618.42
2018-09-20T05:12:18.568Z,100626.33
2018-09-20T05:17:22.658Z,100634.58
2018-09-20T05:22:26.110Z,100641.02
2018-09-20T05:27:29.566Z,100648.92
2018-09-20T05:32:33.042Z,100647.46
2018-09-20T05:37:36.519Z,100644.77
2018-09-20T05:42:39.983Z,100649.13
2018-09-20T05:47:45.009Z,100642.58
2018-09-20T05:52:48.562Z,100652.71
2018-09-20T05:57:52.035Z,100642.09
2018-09-20T06:02:55.471Z,100649.50
2018-09-20T06:07:58.980Z,100656.13
2018-09-20T06:13:02.479Z,100650.06
2018-09-20T06:18:05.991Z,100666.06
2018-09-20T06:23:09.420Z,100667.16
2018-09-20T06:28:12.907Z,100659.98
2018-09-20T06:33:16.382Z,100660.84
2018-09-20T06:38:19.902Z,100660.02
2018-09-20T06:43:23.369Z,100651.34
2018-09-20T06:53:29.432Z,100663.59
2018-09-20T06:58:32.891Z,100658.45
2018-09-20T07:03:36.360Z,100665.44
2018-09-20T07:08:39.863Z,100663.27
2018-09-20T07:13:43.392Z,100663.75
2018-09-20T07:18:46.809Z,100667.19
2018-09-20T07:23:50.306Z,100663.43
2018-09-20T07:28:53.779Z,100661.77
2018-09-20T07:33:57.238Z,100663.45
2018-09-20T07:39:00.747Z,100657.84
2018-09-20T07:44:04.222Z,100655.29
2018-09-20T07:49:07.670Z,100660.17
2018-09-20T07:54:11.118Z,100655.16
2018-09-20T07:59:14.569Z,100653.42
2018-09-20T08:04:18.036Z,100654.18
2018-09-20T08:09:21.477Z,100655.01
2018-09-20T08:14:25.007Z,100658.67
2018-09-20T08:19:28.459Z,100654.01
2018-09-20T08:24:32.350Z,100650.37
2018-09-20T08:29:35.812Z,100650.23
2018-09-20T08:34:39.283Z,100642.98
2018-09-20T08:39:42.736Z,100639.39
2018-09-20T08:44:46.164Z,100638.48
2018-09-20T08:49:49.638Z,100633.85
2018-09-20T08:54:53.143Z,100631.34
2018-09-20T08:59:56.584Z,100625.72
2018-09-20T09:05:00.063Z,100624.33
2018-09-20T09:10:03.623Z,100622.02
2018-09-20T09:15:07.390Z,100620.63
2018-09-20T09:20:10.835Z,100615.22
2018-09-20T09:25:14.292Z,100606.38
2018-09-20T09:40:19.426Z,100585.66
2018-09-20T09:45:22.863Z,100587.07
2018-09-20T09:50:26.310Z,100583.80
2018-09-20T09:55:29.775Z,100579.34
2018-09-20T10:00:37.130Z,100574.77
2018-09-20T10:05:40.592Z,100560.61
2018-09-20T10:10:44.048Z,100546.02
2018-09-20T10:15:47.520Z,100544.77
2018-09-20T10:20:50.985Z,100534.12
2018-09-20T10:25:54.473Z,100534.48
2018-09-20T10:30:58.015Z,100529.09
2018-09-20T10:36:02.378Z,100529.09
2018-09-20T10:41:05.830Z,100521.85
2018-09-20T10:46:09.309Z,100513.66
2018-09-20T10:51:12.768Z,100509.61
2018-09-20T10:56:16.251Z,100502.72
2018-09-20T11:01:19.706Z,100485.91
2018-09-20T11:06:23.411Z,100470.08
2018-09-20T11:11:26.856Z,100472.13
2018-09-20T11:16:30.321Z,100465.14
2018-09-20T11:21:33.782Z,100461.09
2018-09-20T11:26:37.236Z,100456.27
2018-09-20T11:31:40.683Z,100444.98
2018-09-20T11:36:44.133Z,100446.83
2018-09-20T11:41:47.622Z,100431.14
2018-09-20T11:46:51.052Z,100438.59
2018-09-20T11:51:54.490Z,100434.05
2018-09-20T11:56:57.973Z,100428.86
2018-09-20T12:02:01.485Z,100419.91
2018-09-20T12:07:05.012Z,100416.22
2018-09-20T12:12:08.492Z,100401.98
2018-09-20T12:17:11.959Z,100402.27
2018-09-20T12:22:15.445Z,100393.18
2018-09-20T12:27:18.891Z,100387.49
2018-09-20T12:32:22.478Z,100373.36
2018-09-20T12:37:31.171Z,100362.07
2018-09-20T12:42:34.847Z,100358.38
2018-09-20T12:47:38.365Z,100353.83
2018-09-20T12:52:41.831Z,100348.94
2018-09-20T12:57:45.321Z,100343.53
2018-09-20T13:02:48.840Z,100333.98
2018-09-20T13:13:02.111Z,100323.39
2018-09-20T13:18:05.587Z,100318.27
2018-09-20T13:23:09.151Z,100304.77
2018-09-20T13:28:12.619Z,100307.72
2018-09-20T13:33:16.088Z,100304.58
2018-09-20T13:38:19.659Z,100293.63
2018-09-20T13:43:23.151Z,100288.97
2018-09-20T13:48:26.591Z,100292.56
2018-09-20T13:53:30.027Z,100294.77
2018-09-20T13:58:33.530Z,100288.48
2018-09-20T14:03:36.984Z,100289.48
2018-09-20T14:08:40.432Z,100282.73
2018-09-20T14:13:43.885Z,100275.14
2018-09-20T14:18:47.340Z,100270.44
2018-09-20T14:23:50.808Z,100271.20
2018-09-20T14:28:54.268Z,100269.24
2018-09-20T14:33:57.701Z,100262.61
2018-09-20T14:39:01.148Z,100263.96
2018-09-20T14:44:04.618Z,100259.91
2018-09-20T14:49:08.132Z,100261.70
2018-09-20T14:54:11.642Z,100260.63
2018-09-20T14:59:15.144Z,100258.17
2018-09-20T15:04:18.614Z,100256.75
2018-09-20T15:09:22.092Z,100252.90
2018-09-20T15:14:25.554Z,100247.34
2018-09-20T15:19:29.083Z,100247.77
2018-09-20T15:24:32.665Z,100246.81
2018-09-20T15:29:36.094Z,100248.59
2018-09-20T15:34:39.579Z,100244.08
2018-09-20T15:39:43.116Z,100237.44
2018-09-20T15:44:46.587Z,100230.65
2018-09-20T15:49:50.026Z,100246.35
2018-09-20T15:54:53.508Z,100220.20
2018-09-20T15:59:56.962Z,100239.95
2018-09-20T16:05:00.449Z,100237.28
2018-09-20T16:10:04.161Z,100238.39
2018-09-20T16:15:07.597Z,100228.72
2018-09-20T16:20:11.076Z,100226.87
2018-09-20T16:25:14.600Z,100227.80
2018-09-20T16:30:36.047Z,100220.32
2018-09-20T16:35:46.444Z,100225.03
2018-09-20T16:40:50.885Z,100217.78
2018-09-20T16:45:54.528Z,100215.73
2018-09-20T16:50:57.962Z,100212.88
2018-09-20T16:56:01.448Z,100203.92
2018-09-20T17:01:04.902Z,100204.52
2018-09-20T17:06:08.377Z,100205.11
2018-09-20T17:11:12.159Z,100203.83
2018-09-20T17:16:15.706Z,100213.63
2018-09-20T17:21:19.121Z,100219.31
2018-09-20T17:26:22.684Z,100218.34
2018-09-20T17:31:26.171Z,100212.56
2018-09-20T17:36:29.800Z,100217.03
2018-09-20T17:41:34.992Z,100209.61
2018-09-20T17:46:38.462Z,100215.83
2018-09-20T17:51:42.261Z,100211.06
2018-09-20T17:56:46.089Z,100211.22
2018-09-20T18:01:49.567Z,100207.86
2018-09-20T18:06:53.007Z,100211.72
2018-09-20T18:11:56.468Z,100210.56
2018-09-20T18:16:59.955Z,100211.91
2018-09-20T18:22:03.453Z,100211.56
2018-09-20T18:27:06.942Z,100214.80
2018-09-20T18:32:10.394Z,100211.94
2018-09-20T18:37:14.060Z,100217.06
2018-09-20T18:42:17.500Z,100221.66
2018-09-20T18:47:21.233Z,100219.80
2018-09-20T18:52:24.702Z,100223.67
2018-09-20T18:57:28.140Z,100222.66
2018-09-20T19:02:31.604Z,100216.91
2018-09-20T19:07:35.116Z,100211.81
2018-09-20T19:12:38.641Z,100209.24
2018-09-20T19:17:42.111Z,100203.84
2018-09-20T19:22:45.580Z,100200.44
2018-09-20T19:27:49.111Z,100195.03
2018-09-20T19:32:52.580Z,100188.34
2018-09-20T19:37:56.254Z,100186.14
2018-09-20T19:42:59.724Z,100190.70
2018-09-20T19:48:03.217Z,100186.23
2018-09-20T19:53:06.672Z,100161.41
2018-09-20T19:58:10.200Z,100186.08
2018-09-20T20:03:13.682Z,100183.74
2018-09-20T20:08:17.255Z,100179.42
2018-09-20T20:13:20.729Z,100181.11
2018-09-20T20:23:54.962Z,100171.63
2018-09-20T20:28:58.428Z,100164.55
2018-09-20T20:34:01.899Z,100161.00
2018-09-20T20:39:08.059Z,100159.81
2018-09-20T20:44:11.589Z,100163.36
2018-09-20T20:49:15.032Z,100157.13
2018-09-20T20:54:18.544Z,100162.70
2018-09-20T20:59:22.108Z,100157.10
2018-09-20T21:04:25.590Z,100153.98
2018-09-20T21:09:29.119Z,100156.19
2018-09-20T21:14:32.643Z,100158.38
2018-09-20T21:19:36.219Z,100156.71
2018-09-20T21:24:39.797Z,100149.61
2018-09-20T21:29:43.249Z,100142.91
2018-09-20T21:34:46.767Z,100143.38
2018-09-20T21:39:50.288Z,100136.28
2018-09-20T21:44:53.752Z,100135.65
2018-09-20T21:49:57.210Z,100130.59
2018-09-20T21:55:00.683Z,100121.81
2018-09-20T22:00:04.634Z,100114.02
2018-09-20T22:05:08.148Z,100117.91
2018-09-20T22:10:11.607Z,100106.25
2018-09-20T22:15:25.587Z,100109.31
2018-09-20T22:20:30.204Z,100091.17
2018-09-20T22:25:33.831Z,100098.44
2018-09-20T22:30:38.665Z,100085.42
2018-09-20T22:35:42.182Z,100082.22
2018-09-20T22:40:45.662Z,100081.92
2018-09-20T22:45:49.172Z,100074.50
2018-09-20T22:50:52.744Z,100072.46
2018-09-20T22:55:56.236Z,100061.48
2018-09-20T23:00:59.707Z,100058.28
2018-09-20T23:06:03.260Z,100056.41
2018-09-20T23:11:06.789Z,100057.38
2018-09-20T23:16:10.321Z,100051.80
2018-09-20T23:21:13.814Z,100049.76
2018-09-20T23:26:17.280Z,100038.05
2018-09-20T23:31:20.787Z,100038.37
2018-09-20T23:36:24.262Z,100035.98
2018-09-20T23:41:27.744Z,100031.76
2018-09-20T23:46:31.252Z,100026.80
2018-09-20T23:51:34.752Z,100032.20
2018-09-20T23:56:38.204Z,100018.17
